Time;durP1;ratioP1;P1;durP2;ratioP2;P2;SDS_P1;SDS_P2;PMS_P1;PMS_P2;Temp;Humidity;BMP_temperature;BMP_pressure;BME280_temperature;BME280_humidity;BME280_pressure;Samples;Min_cycle;Max_cycle;Signal;HPM_P1;HPM_P2
2022/04/21 00:00:20;;;;;;;;;72.50;56.50;9.40;67.30;;;;;;5097143;28;8884;-60
2022/04/21 00:02:46;;;;;;;;;67.50;54.00;9.20;67.90;;;;;;5078982;28;8776;-60
2022/04/21 00:05:13;;;;;;;;;69.25;54.50;9.40;67.70;;;;;;5097032;28;9452;-60
2022/04/21 00:07:40;;;;;;;;;70.00;56.25;9.50;66.60;;;;;;5096688;28;8859;-60
2022/04/21 00:10:07;;;;;;;;;71.25;58.25;9.70;65.50;;;;;;5096751;28;8856;-61
2022/04/21 00:12:34;;;;;;;;;67.00;54.00;9.30;67.10;;;;;;5096748;28;8855;-61
2022/04/21 00:15:04;;;;;;;;;64.25;52.50;9.10;68.30;;;;;;5096791;28;8756;-61
2022/04/21 00:17:30;;;;;;;;;68.00;53.75;9.20;67.90;;;;;;5096637;28;8759;-61
2022/04/21 00:19:56;;;;;;;;;68.75;56.75;9.60;66.50;;;;;;5096629;28;8768;-61
2022/04/21 00:25:06;;;;;;;;;63.25;53.00;9.30;67.10;;;;;;5096868;28;9434;-61
2022/04/21 00:27:43;;;;;;;;;70.75;58.00;9.60;65.40;;;;;;5096365;28;8819;-60
2022/04/21 00:30:10;;;;;;;;;75.50;61.25;9.60;64.90;;;;;;5096443;28;8775;-60
2022/04/21 00:32:38;;;;;;;;;75.25;59.75;9.70;64.90;;;;;;5096307;28;8813;-60
2022/04/21 00:35:05;;;;;;;;;71.00;55.25;9.80;64.50;;;;;;5096301;28;8760;-60
2022/04/21 00:37:31;;;;;;;;;69.25;56.50;9.80;64.60;;;;;;5096487;28;8747;-61
2022/04/21 00:39:57;;;;;;;;;68.00;53.50;9.90;63.80;;;;;;5095736;28;8806;-60
2022/04/21 00:42:23;;;;;;;;;63.00;53.75;9.80;64.60;;;;;;5096429;28;8755;-60
2022/04/21 00:44:50;;;;;;;;;74.25;58.00;9.70;64.50;;;;;;5096302;28;8783;-60
2022/04/21 00:47:17;;;;;;;;;64.50;54.50;9.60;65.00;;;;;;5096268;28;9632;-60
2022/04/21 00:49:44;;;;;;;;;70.75;56.75;9.60;65.20;;;;;;5096240;28;8857;-60
2022/04/21 00:52:10;;;;;;;;;67.50;54.25;9.20;67.20;;;;;;5078375;28;8772;-60
2022/04/21 00:54:36;;;;;;;;;70.25;57.50;9.60;65.70;;;;;;5096115;28;8879;-60
2022/04/21 00:57:04;;;;;;;;;63.00;51.25;9.80;65.00;;;;;;5095166;28;8764;-60
2022/04/21 00:59:30;;;;;;;;;72.50;57.75;9.70;65.00;;;;;;5077942;28;8799;-60
2022/04/21 01:04:41;;;;;;;;;65.25;54.00;9.10;68.80;;;;;;5080669;28;8747;-60
2022/04/21 01:07:11;;;;;;;;;73.75;57.50;9.30;68.50;;;;;;5095567;28;8834;-60
2022/04/21 01:09:39;;;;;;;;;71.75;56.25;9.20;69.80;;;;;;5095649;28;8767;-61
2022/04/21 01:12:10;;;;;;;;;73.25;57.75;9.50;68.70;;;;;;5095871;28;8760;-60
2022/04/21 01:14:37;;;;;;;;;72.75;57.75;9.30;69.70;;;;;;5095818;28;8852;-60
2022/04/21 01:17:04;;;;;;;;;71.75;58.75;9.50;68.80;;;;;;5095504;28;8756;-60
2022/04/21 01:19:29;;;;;;;;;60.75;50.00;9.60;67.90;;;;;;5095670;28;9655;-61
2022/04/21 01:21:55;;;;;;;;;69.50;55.50;9.70;66.90;;;;;;5095223;28;8918;-60
2022/04/21 01:24:21;;;;;;;;;74.75;58.75;9.80;66.40;;;;;;5095767;28;8918;-61
2022/04/21 01:26:48;;;;;;;;;74.25;59.50;9.60;67.30;;;;;;5095251;28;8796;-61
2022/04/21 01:29:14;;;;;;;;;71.25;58.00;9.00;70.60;;;;;;5095292;28;8760;-60
2022/04/21 01:31:40;;;;;;;;;76.00;61.25;9.00;70.70;;;;;;5095283;28;8795;-61
2022/04/21 01:34:06;;;;;;;;;77.50;62.00;8.80;71.70;;;;;;5095418;28;9455;-60
2022/04/21 01:36:32;;;;;;;;;68.50;56.00;9.30;69.40;;;;;;5095146;28;8788;-60
2022/04/21 01:41:42;;;;;;;;;71.50;58.50;9.60;66.90;;;;;;5095128;28;8768;-60
2022/04/21 01:44:08;;;;;;;;;76.25;60.25;9.50;67.30;;;;;;5095236;28;8829;-60
2022/04/21 01:46:33;;;;;;;;;76.00;61.00;9.60;67.00;;;;;;5095173;28;9457;-60
2022/04/21 01:48:59;;;;;;;;;72.25;57.25;9.70;67.00;;;;;;5095162;28;8768;-61
2022/04/21 01:51:25;;;;;;;;;75.25;60.00;9.80;66.80;;;;;;5095149;28;8768;-60
2022/04/21 01:53:51;;;;;;;;;76.00;61.00;9.80;66.90;;;;;;5094903;28;8856;-60
2022/04/21 01:56:17;;;;;;;;;75.75;61.50;9.70;66.90;;;;;;5094905;28;8776;-60
2022/04/21 01:58:42;;;;;;;;;68.50;53.00;9.80;67.40;;;;;;5094998;28;9452;-61
2022/04/21 02:01:08;;;;;;;;;71.50;55.00;9.70;68.50;;;;;;5094850;28;8748;-60
2022/04/21 02:03:35;;;;;;;;;69.25;57.00;9.30;71.00;;;;;;5094828;28;8772;-60
2022/04/21 02:06:00;;;;;;;;;69.25;55.00;9.40;70.40;;;;;;5095009;28;8843;-60
2022/04/21 02:08:29;;;;;;;;;65.75;53.00;9.20;72.30;;;;;;5094447;28;8862;-60
2022/04/21 02:10:55;;;;;;;;;67.50;53.75;9.20;72.30;;;;;;5094572;28;8852;-60
2022/04/21 02:13:21;;;;;;;;;68.00;55.50;9.10;72.40;;;;;;5094863;28;8756;-60
2022/04/21 02:15:47;;;;;;;;;73.75;57.75;9.40;71.30;;;;;;5094524;28;9409;-61
2022/04/21 02:18:13;;;;;;;;;78.25;62.50;9.00;72.20;;;;;;5094504;28;8768;-60
2022/04/21 02:20:39;;;;;;;;;79.50;64.25;8.40;77.70;;;;;;5094824;28;8798;-60
2022/04/21 02:23:05;;;;;;;;;76.75;60.25;7.90;85.40;;;;;;5076663;28;8819;-61
2022/04/21 02:25:31;;;;;;;;;82.75;64.25;7.70;90.90;;;;;;5095134;28;8818;-61
2022/04/21 02:27:57;;;;;;;;;78.25;62.00;8.20;83.30;;;;;;5094333;28;8924;-60
2022/04/21 02:30:22;;;;;;;;;78.00;63.00;7.70;86.50;;;;;;5094432;28;8780;-60
2022/04/21 02:32:48;;;;;;;;;76.25;61.00;7.50;91.20;;;;;;5094689;28;8779;-60
2022/04/21 02:35:15;;;;;;;;;75.00;58.75;7.50;90.10;;;;;;5094378;28;8772;-60
2022/04/21 02:37:43;;;;;;;;;73.00;58.00;7.70;86.10;;;;;;5094232;28;8798;-60
2022/04/21 02:40:10;;;;;;;;;72.75;57.50;7.60;82.30;;;;;;5094369;28;8891;-60
2022/04/21 02:42:40;;;;;;;;;64.25;52.75;7.30;87.10;;;;;;5094594;28;8760;-60
2022/04/21 02:45:11;;;;;;;;;65.75;53.75;7.40;83.30;;;;;;5094299;28;8779;-60
2022/04/21 02:47:38;;;;;;;;;71.00;56.00;7.00;90.50;;;;;;5076350;28;8808;-60
2022/04/21 02:50:07;;;;;;;;;62.00;49.50;7.30;86.00;;;;;;5094395;28;9413;-60
2022/04/21 02:52:40;;;;;;;;;68.75;55.00;7.70;78.30;;;;;;5094185;28;8764;-60
2022/04/21 02:57:52;;;;;;;;;72.75;57.00;7.60;78.50;;;;;;5094218;28;8751;-60
2022/04/21 03:00:17;;;;;;;;;66.50;55.00;7.80;76.40;;;;;;5094167;28;8748;-60
2022/04/21 03:02:43;;;;;;;;;68.25;54.00;7.10;81.90;;;;;;5094146;28;8836;-60
2022/04/21 03:05:11;;;;;;;;;67.50;54.00;7.10;82.20;;;;;;5094402;28;8787;-60
2022/04/21 03:07:36;;;;;;;;;71.75;55.50;7.10;82.40;;;;;;5094293;28;9543;-60
2022/04/21 03:10:02;;;;;;;;;69.00;56.00;7.20;81.90;;;;;;5094099;28;8866;-61
2022/04/21 03:12:28;;;;;;;;;69.25;55.50;7.60;77.40;;;;;;5093970;28;8756;-61
2022/04/21 03:14:55;;;;;;;;;62.50;51.75;8.10;72.90;;;;;;5094051;28;8779;-60
2022/04/21 03:17:21;;;;;;;;;68.50;54.75;8.20;71.30;;;;;;5094029;28;8756;-60
2022/04/21 03:19:47;;;;;;;;;61.75;50.50;8.10;71.10;;;;;;5094833;28;8912;-60
2022/04/21 03:25:03;;;;;;;;;64.25;52.25;7.80;72.90;;;;;;5098053;28;8783;-60
2022/04/21 03:27:29;;;;;;;;;62.75;54.00;7.80;74.10;;;;;;5097812;28;8807;-60
2022/04/21 03:29:56;;;;;;;;;65.25;52.50;7.60;75.20;;;;;;5097605;28;8762;-60
2022/04/21 03:32:21;;;;;;;;;64.25;53.00;7.90;73.80;;;;;;5097384;28;8806;-60
2022/04/21 03:34:47;;;;;;;;;68.75;56.00;8.30;70.80;;;;;;5097771;28;8764;-60
2022/04/21 03:37:15;;;;;;;;;64.75;53.25;8.10;71.20;;;;;;5097747;28;8780;-60
2022/04/21 03:39:42;;;;;;;;;71.25;55.50;7.80;72.40;;;;;;5108519;27;8841;-60
2022/04/21 03:42:20;;;;;;;;;61.00;50.50;7.80;74.10;;;;;;5098445;28;8779;-60
2022/04/21 03:44:47;;;;;;;;;68.50;55.00;8.10;71.90;;;;;;5118056;28;8834;-60
2022/04/21 03:47:12;;;;;;;;;57.75;47.75;8.30;70.40;;;;;;5110207;28;8804;-60
2022/04/21 03:49:38;;;;;;;;;71.75;57.25;8.40;69.80;;;;;;5097326;28;8790;-60
2022/04/21 03:52:04;;;;;;;;;74.00;58.25;8.60;69.10;;;;;;5097441;28;8768;-60
2022/04/21 03:54:30;;;;;;;;;78.00;60.00;8.10;71.50;;;;;;5097295;28;9532;-60
2022/04/21 03:56:56;;;;;;;;;70.50;57.50;8.10;72.20;;;;;;5079260;28;8799;-60
2022/04/21 03:59:25;;;;;;;;;70.50;56.00;8.00;72.90;;;;;;5097296;28;8778;-60
2022/04/21 04:01:54;;;;;;;;;75.00;58.25;8.10;72.00;;;;;;5097281;28;8760;-60
2022/04/21 04:04:19;;;;;;;;;75.25;58.25;7.90;73.50;;;;;;5096925;28;8792;-60
2022/04/21 04:12:14;;;;;;;;;67.00;54.00;8.70;70.10;;;;;;5096853;28;8752;-59
2022/04/21 04:14:40;;;;;;;;;74.00;61.00;8.70;69.30;;;;;;5096637;28;9448;-60
2022/04/21 04:17:08;;;;;;;;;86.75;68.00;8.50;70.40;;;;;;5096776;28;8890;-60
2022/04/21 04:19:34;;;;;;;;;78.50;63.00;8.20;72.70;;;;;;5096617;28;8771;-60
2022/04/21 04:22:00;;;;;;;;;85.50;67.75;8.20;73.00;;;;;;5096556;28;9461;-60
2022/04/21 04:24:27;;;;;;;;;89.25;76.00;8.00;75.00;;;;;;5096657;28;8818;-60
2022/04/21 04:26:52;;;;;;;;;84.50;65.00;8.00;75.10;;;;;;5096804;28;8776;-60
2022/04/21 04:29:22;;;;;;;;;85.75;67.00;8.30;73.50;;;;;;5096745;28;8764;-60
2022/04/21 04:31:50;;;;;;;;;80.75;62.75;8.70;71.20;;;;;;5096524;28;8875;-60
2022/04/21 04:34:16;;;;;;;;;85.00;73.50;8.10;75.40;;;;;;5096402;28;8764;-60
2022/04/21 04:36:41;;;;;;;;;84.50;68.00;7.90;78.00;;;;;;5096279;28;8775;-60
2022/04/21 04:39:08;;;;;;;;;80.50;64.25;8.00;78.70;;;;;;5099715;27;8768;-66
2022/04/21 04:44:18;;;;;;;;;87.50;73.75;8.20;78.60;;;;;;5120660;27;8763;-60
2022/04/21 04:46:43;;;;;;;;;91.25;71.75;8.30;77.20;;;;;;5134228;27;8850;-60
2022/04/21 04:49:10;;;;;;;;;87.50;73.00;8.40;75.80;;;;;;5135122;27;8768;-60
2022/04/21 04:51:41;;;;;;;;;87.25;71.25;8.60;75.10;;;;;;5137138;27;8817;-64
2022/04/21 04:54:07;;;;;;;;;89.00;76.50;8.60;75.00;;;;;;5137199;27;8779;-59
2022/04/21 04:56:35;;;;;;;;;83.25;68.00;8.70;76.80;;;;;;5137017;27;8763;-60
2022/04/21 04:59:01;;;;;;;;;80.75;63.25;8.50;78.50;;;;;;5099506;27;8748;-60
2022/04/21 05:01:32;;;;;;;;;74.75;59.25;8.10;84.40;;;;;;5109191;27;8752;-60
2022/04/21 05:04:14;;;;;;;;;82.00;64.75;8.10;88.60;;;;;;5105900;27;8770;-60
2022/04/21 05:06:47;;;;;;;;;62.00;51.00;8.40;82.90;;;;;;5097818;27;8834;-60
2022/04/21 05:09:15;;;;;;;;;77.00;60.00;8.70;79.40;;;;;;5136515;27;9451;-68
2022/04/21 05:11:42;;;;;;;;;74.75;60.50;8.50;79.90;;;;;;5133481;27;8775;-60
2022/04/21 05:14:10;;;;;;;;;82.50;67.75;8.10;90.10;;;;;;5119417;27;8774;-60
2022/04/21 05:16:37;;;;;;;;;75.25;60.00;8.30;89.10;;;;;;5115036;28;8793;-59
2022/04/21 05:19:04;;;;;;;;;83.25;67.50;8.70;81.90;;;;;;5115147;28;8754;-59
2022/04/21 05:21:32;;;;;;;;;85.00;71.00;8.90;77.80;;;;;;5115770;28;8827;-60
2022/04/21 05:24:02;;;;;;;;;87.00;72.50;9.10;75.70;;;;;;5115636;28;8881;-61
2022/04/21 05:26:29;;;;;;;;;83.75;66.75;8.90;77.00;;;;;;5115739;28;8866;-61
2022/04/21 05:28:56;;;;;;;;;84.25;69.75;9.40;75.30;;;;;;5114070;28;9430;-60
2022/04/21 05:31:24;;;;;;;;;79.00;62.50;9.40;74.00;;;;;;5097445;28;8828;-60
2022/04/21 05:33:50;;;;;;;;;76.50;62.00;8.80;78.50;;;;;;5115311;28;8785;-60
2022/04/21 05:36:16;;;;;;;;;76.00;61.00;9.00;78.50;;;;;;5115530;28;8842;-61
2022/04/21 05:38:42;;;;;;;;;68.50;55.00;9.20;76.10;;;;;;5115726;28;8755;-61
2022/04/21 05:41:08;;;;;;;;;70.75;57.00;9.10;76.10;;;;;;5115584;28;8747;-60
2022/04/21 05:43:42;;;;;;;;;71.50;55.50;9.50;74.40;;;;;;5096973;28;8763;-60
2022/04/21 05:46:10;;;;;;;;;69.50;54.75;9.10;76.20;;;;;;5115315;28;8820;-60
2022/04/21 05:48:36;;;;;;;;;72.00;57.50;8.60;80.70;;;;;;5097365;28;8783;-60
2022/04/21 05:51:03;;;;;;;;;68.00;54.50;9.00;79.40;;;;;;5115269;28;8767;-61
2022/04/21 05:53:34;;;;;;;;;69.75;56.25;9.30;76.80;;;;;;5115475;28;8739;-60
2022/04/21 05:56:00;;;;;;;;;71.25;56.75;9.30;78.30;;;;;;5115483;28;8790;-60
2022/04/21 05:58:26;;;;;;;;;65.75;52.25;9.30;79.50;;;;;;5115134;28;8773;-60
2022/04/21 06:00:52;;;;;;;;;69.75;53.00;9.70;78.10;;;;;;5115083;28;8763;-60
2022/04/21 06:03:18;;;;;;;;;61.00;48.00;9.80;75.60;;;;;;5114950;28;8776;-60
2022/04/21 06:05:44;;;;;;;;;70.00;57.00;9.80;76.10;;;;;;5097023;28;8771;-60
2022/04/21 06:08:10;;;;;;;;;61.00;48.75;10.00;75.20;;;;;;5114997;28;8905;-60
2022/04/21 06:10:36;;;;;;;;;70.00;55.75;10.10;74.40;;;;;;5115300;28;8767;-60
2022/04/21 06:13:05;;;;;;;;;74.00;60.25;10.40;72.10;;;;;;5115142;28;8797;-60
2022/04/21 06:15:31;;;;;;;;;65.00;52.25;10.30;72.70;;;;;;5114957;28;8773;-60
2022/04/21 06:18:00;;;;;;;;;67.50;53.75;10.50;71.40;;;;;;5115198;28;8756;-60
2022/04/21 06:20:27;;;;;;;;;73.75;58.75;10.70;69.70;;;;;;5105944;28;8776;-60
2022/04/21 06:22:54;;;;;;;;;79.00;60.25;11.20;67.40;;;;;;5094460;28;8826;-59
2022/04/21 06:25:19;;;;;;;;;71.00;59.00;11.10;68.20;;;;;;5094813;28;8811;-60
2022/04/21 06:27:45;;;;;;;;;73.00;57.00;10.50;71.30;;;;;;5094649;28;8798;-60
2022/04/21 06:30:11;;;;;;;;;80.00;60.75;10.40;72.20;;;;;;5110233;28;8779;-60
2022/04/21 06:32:37;;;;;;;;;78.00;61.50;10.20;74.00;;;;;;5093789;28;8775;-60
2022/04/21 06:35:04;;;;;;;;;89.00;75.25;10.10;76.10;;;;;;5094597;28;8783;-60
2022/04/21 06:37:30;;;;;;;;;78.00;64.50;10.20;76.40;;;;;;5094423;28;8764;-60
2022/04/21 06:39:55;;;;;;;;;81.50;67.00;10.60;73.40;;;;;;5094607;28;8782;-60
2022/04/21 06:42:21;;;;;;;;;67.00;55.75;10.60;73.10;;;;;;5094680;28;8768;-61
2022/04/21 06:50:15;;;;;;;;;66.00;53.50;10.00;78.70;;;;;;5094401;28;8724;-60
2022/04/21 06:52:40;;;;;;;;;62.50;51.00;9.90;78.70;;;;;;5094111;28;8802;-60
2022/04/21 06:55:07;;;;;;;;;60.00;51.00;9.80;80.10;;;;;;5095457;28;8780;-61
2022/04/21 06:57:32;;;;;;;;;66.75;53.25;9.80;79.00;;;;;;5098457;28;9498;-61
2022/04/21 06:59:58;;;;;;;;;69.25;55.25;9.70;80.90;;;;;;5098452;28;8759;-61
2022/04/21 07:02:28;;;;;;;;;72.50;58.00;10.00;78.40;;;;;;5113891;28;8775;-61
2022/04/21 07:04:54;;;;;;;;;64.75;52.75;9.80;79.00;;;;;;5098059;28;8874;-60
2022/04/21 07:07:23;;;;;;;;;65.75;52.25;10.00;76.70;;;;;;5098060;28;8926;-60
2022/04/21 07:09:48;;;;;;;;;65.75;53.50;9.90;77.70;;;;;;5098013;28;8771;-61
2022/04/21 07:12:17;;;;;;;;;63.50;51.25;10.00;76.10;;;;;;5113939;28;8790;-60
2022/04/21 07:14:43;;;;;;;;;69.00;55.00;10.20;75.30;;;;;;5098194;28;9448;-61
2022/04/21 07:17:08;;;;;;;;;71.00;56.50;10.30;75.10;;;;;;5097821;28;8776;-60
2022/04/21 07:19:34;;;;;;;;;64.50;54.00;10.30;76.20;;;;;;5098084;28;8766;-61
2022/04/21 07:22:00;;;;;;;;;68.25;54.00;10.30;75.40;;;;;;5097562;28;8842;-60
2022/04/21 07:24:25;;;;;;;;;62.50;50.00;10.40;78.40;;;;;;5097491;28;8819;-61
2022/04/21 07:26:51;;;;;;;;;66.50;52.75;10.60;74.30;;;;;;5097483;28;8807;-61
2022/04/21 07:29:17;;;;;;;;;68.50;55.25;10.50;74.20;;;;;;5113585;28;8748;-61
2022/04/21 07:31:42;;;;;;;;;71.00;56.50;10.90;73.00;;;;;;5097862;28;8790;-61
2022/04/21 07:34:08;;;;;;;;;72.00;57.50;11.10;72.00;;;;;;5097658;28;8763;-60
2022/04/21 07:36:34;;;;;;;;;64.75;52.00;11.00;71.90;;;;;;5097344;28;8764;-60
2022/04/21 07:39:00;;;;;;;;;72.25;58.75;10.70;73.70;;;;;;5097640;28;9541;-60
2022/04/21 07:41:26;;;;;;;;;65.50;51.50;11.40;70.20;;;;;;5109325;28;8876;-60
2022/04/21 07:43:51;;;;;;;;;66.00;53.25;11.50;70.50;;;;;;5117990;28;8758;-61
2022/04/21 07:46:17;;;;;;;;;70.00;55.75;11.40;70.30;;;;;;5117790;28;8762;-60
2022/04/21 07:51:27;;;;;;;;;69.75;56.50;11.60;70.10;;;;;;5117687;28;8737;-61
2022/04/21 07:53:52;;;;;;;;;66.25;53.00;11.60;70.20;;;;;;5117707;28;8828;-60
2022/04/21 07:56:19;;;;;;;;;71.00;56.25;11.00;72.90;;;;;;5117622;28;8856;-61
2022/04/21 07:58:44;;;;;;;;;69.50;54.25;10.90;74.60;;;;;;5117310;28;8768;-61
2022/04/21 08:01:11;;;;;;;;;72.50;57.00;11.30;73.90;;;;;;5117325;28;8892;-60
2022/04/21 08:03:37;;;;;;;;;69.25;54.75;11.50;72.70;;;;;;5117317;28;8745;-61
2022/04/21 08:06:05;;;;;;;;;70.00;57.00;12.10;70.50;;;;;;5112587;28;8820;-61
2022/04/21 08:08:31;;;;;;;;;65.50;51.50;12.10;68.40;;;;;;5117177;28;8794;-61
2022/04/21 08:10:56;;;;;;;;;63.75;51.75;11.80;70.20;;;;;;5117458;28;8773;-61
2022/04/21 08:13:24;;;;;;;;;68.75;55.00;11.50;70.60;;;;;;5117185;28;8757;-60
2022/04/21 08:15:53;;;;;;;;;62.75;50.75;11.40;72.80;;;;;;5117371;28;9489;-61
2022/04/21 08:18:18;;;;;;;;;62.25;50.50;11.60;72.30;;;;;;5117338;28;8876;-59
2022/04/21 08:20:46;;;;;;;;;68.50;56.00;12.10;68.80;;;;;;5117201;28;8762;-59
2022/04/21 08:23:11;;;;;;;;;71.00;56.50;12.40;67.80;;;;;;5116856;28;8860;-59
2022/04/21 08:33:50;;;;;;;;;67.00;54.00;12.70;62.70;;;;;;5116934;28;8864;-59
2022/04/21 08:36:16;;;;;;;;;68.50;54.50;12.70;65.00;;;;;;5116847;28;9518;-58
2022/04/21 08:38:42;;;;;;;;;68.75;55.75;12.70;66.20;;;;;;5116904;28;9352;-61
2022/04/21 08:41:10;;;;;;;;;68.25;55.00;13.40;63.30;;;;;;5116568;28;8850;-61
2022/04/21 08:43:36;;;;;;;;;66.00;53.50;13.20;64.60;;;;;;5116791;28;8758;-61
2022/04/21 08:46:08;;;;;;;;;70.50;56.50;12.80;65.00;;;;;;5116782;28;9427;-61
2022/04/21 08:48:36;;;;;;;;;71.00;56.00;12.90;65.40;;;;;;5116659;28;8777;-61
2022/04/21 08:51:08;;;;;;;;;70.50;55.75;13.30;65.80;;;;;;5116307;28;8781;-59
2022/04/21 08:53:33;;;;;;;;;68.00;54.25;13.60;62.80;;;;;;5116627;28;8761;-61
2022/04/21 08:56:00;;;;;;;;;62.00;49.25;13.60;63.50;;;;;;5116502;28;8782;-59
2022/04/21 08:58:26;;;;;;;;;59.50;48.50;13.50;61.10;;;;;;5116474;28;8769;-61
2022/04/21 09:00:54;;;;;;;;;64.25;50.00;13.40;61.40;;;;;;5116518;28;8753;-61
2022/04/21 09:03:20;;;;;;;;;64.50;52.50;13.60;60.40;;;;;;5116411;28;8770;-61
2022/04/21 09:05:46;;;;;;;;;60.50;50.50;13.90;60.30;;;;;;5116121;28;8766;-62
2022/04/21 09:08:20;;;;;;;;;64.75;50.75;14.70;57.00;;;;;;5116075;28;8805;-61
2022/04/21 09:10:47;;;;;;;;;74.75;60.00;15.40;55.10;;;;;;5116228;28;8765;-61
2022/04/21 09:13:13;;;;;;;;;64.00;52.00;15.30;55.30;;;;;;5115969;28;8777;-61
2022/04/21 09:15:43;;;;;;;;;65.25;52.50;14.30;58.60;;;;;;5116123;28;8769;-61
2022/04/21 09:18:10;;;;;;;;;73.50;64.25;14.00;59.50;;;;;;5115364;28;8750;-60
2022/04/21 09:20:36;;;;;;;;;78.50;69.00;13.90;59.60;;;;;;5115790;28;8814;-61
2022/04/21 09:23:07;;;;;;;;;70.50;57.00;14.00;61.70;;;;;;5115698;28;9451;-61
2022/04/21 09:25:46;;;;;;;;;77.50;65.25;14.30;61.30;;;;;;5115849;28;8824;-61
2022/04/21 09:28:20;;;;;;;;;84.50;77.50;14.20;61.30;;;;;;5115557;28;8870;-61
2022/04/21 09:30:46;;;;;;;;;90.00;86.00;14.30;62.60;;;;;;5115879;28;8868;-60
2022/04/21 09:33:25;;;;;;;;;86.50;79.75;14.60;60.60;;;;;;5097684;28;8754;-60
2022/04/21 09:35:50;;;;;;;;;87.00;79.00;14.80;59.80;;;;;;5115800;28;9435;-60
2022/04/21 09:38:18;;;;;;;;;107.00;96.25;15.00;57.50;;;;;;5115491;28;8815;-60
2022/04/21 09:40:45;;;;;;;;;65.25;53.00;15.50;58.10;;;;;;5115364;28;8762;-61
2022/04/21 09:43:11;;;;;;;;;67.00;53.25;15.00;57.50;;;;;;5115632;28;8769;-60
2022/04/21 09:48:26;;;;;;;;;124.25;114.75;14.80;60.60;;;;;;5094972;28;8783;-60
2022/04/21 09:50:56;;;;;;;;;98.25;95.75;15.10;58.00;;;;;;5095077;28;8795;-61
2022/04/21 09:53:23;;;;;;;;;109.25;95.75;15.60;56.80;;;;;;5094878;28;8832;-60
2022/04/21 09:56:09;;;;;;;;;77.25;65.50;16.20;58.30;;;;;;5094920;28;8767;-61
2022/04/21 09:58:38;;;;;;;;;67.75;53.50;16.70;54.20;;;;;;5094657;28;8771;-60
2022/04/21 10:01:05;;;;;;;;;94.00;84.25;16.70;51.50;;;;;;5095069;28;9466;-60
2022/04/21 10:03:34;;;;;;;;;87.00;78.75;16.90;50.80;;;;;;5094828;28;8779;-61
2022/04/21 10:06:01;;;;;;;;;82.50;80.00;17.50;52.60;;;;;;5094629;28;8901;-61
2022/04/21 10:08:29;;;;;;;;;94.00;87.75;17.80;49.20;;;;;;5094910;28;8807;-61
2022/04/21 10:10:56;;;;;;;;;96.00;88.50;17.50;48.60;;;;;;5094591;28;8764;-61
2022/04/21 10:13:22;;;;;;;;;84.00;76.50;16.90;48.70;;;;;;5094596;28;9362;-61
2022/04/21 10:15:51;;;;;;;;;88.75;82.25;16.60;50.60;;;;;;5094569;28;8756;-60
2022/04/21 10:18:17;;;;;;;;;92.50;87.00;17.00;49.60;;;;;;5094046;28;8760;-61
2022/04/21 10:20:47;;;;;;;;;81.75;72.25;17.70;47.60;;;;;;5094147;28;8751;-61
2022/04/21 10:23:17;;;;;;;;;73.50;60.25;17.40;45.80;;;;;;5094106;28;8814;-61
2022/04/21 10:25:43;;;;;;;;;77.75;67.25;17.90;43.60;;;;;;5094687;28;8800;-61
2022/04/21 10:28:40;;;;;;;;;66.50;50.75;17.50;46.50;;;;;;5094585;28;8830;-60
2022/04/21 10:31:33;;;;;;;;;43.75;37.50;17.30;45.70;;;;;;5101488;28;8786;-63
2022/04/21 10:34:00;;;;;;;;;49.00;41.00;17.30;45.60;;;;;;5101312;28;8756;-61
2022/04/21 10:36:41;;;;;;;;;48.00;40.00;18.00;46.50;;;;;;5101341;28;9405;-61
2022/04/21 10:39:10;;;;;;;;;58.00;46.00;18.40;43.40;;;;;;5101425;28;8760;-61
2022/04/21 10:41:37;;;;;;;;;59.50;49.50;18.50;44.90;;;;;;5100951;28;8744;-61
2022/04/21 10:44:03;;;;;;;;;46.33;41.00;18.60;43.30;;;;;;5101110;28;8755;-61
2022/04/21 10:46:30;;;;;;;;;42.75;36.25;18.60;42.70;;;;;;5101188;28;8763;-60
2022/04/21 10:48:58;;;;;;;;;52.25;43.50;18.30;43.10;;;;;;5101097;28;8760;-61
2022/04/21 10:57:10;;;;;;;;;46.00;38.50;18.90;41.30;;;;;;5101173;28;9402;-61
2022/04/21 10:57:32;;;;;;;;;44.67;38.33;19.60;42.40;;;;;;5100881;28;8854;-61
2022/04/21 11:00:01;;;;;;;;;46.33;38.67;19.40;41.80;;;;;;5083045;28;8882;-61
2022/04/21 11:03:05;;;;;;;;;36.33;34.33;19.90;38.20;;;;;;5100996;28;8779;-61
2022/04/21 11:05:40;;;;;;;;;39.33;36.67;19.50;39.30;;;;;;5091606;28;9449;-61
2022/04/21 11:08:18;;;;;;;;;41.67;34.00;18.60;40.40;;;;;;5100995;28;8829;-61
2022/04/21 11:10:44;;;;;;;;;37.67;33.33;17.80;42.40;;;;;;5100724;28;9534;-61
2022/04/21 11:13:17;;;;;;;;;34.33;32.33;17.40;42.60;;;;;;5100766;28;8783;-61
2022/04/21 11:15:47;;;;;;;;;39.00;35.00;17.10;43.40;;;;;;5100268;28;8767;-61
2022/04/21 11:18:21;;;;;;;;;35.00;32.00;17.20;42.10;;;;;;5100515;28;8798;-61
2022/04/21 11:20:49;;;;;;;;;36.00;33.67;18.10;42.00;;;;;;5082835;28;8768;-61
2022/04/21 11:23:30;;;;;;;;;29.67;29.67;18.70;41.20;;;;;;5100561;28;9437;-61
2022/04/21 11:26:04;;;;;;;;;34.33;31.67;18.30;40.30;;;;;;5100712;28;8776;-61
2022/04/21 11:28:31;;;;;;;;;37.33;33.67;17.40;41.50;;;;;;5100644;28;8835;-61
2022/04/21 11:31:04;;;;;;;;;37.67;34.00;17.50;41.60;;;;;;5100679;28;9599;-61
2022/04/21 11:33:32;;;;;;;;;29.67;27.33;17.10;43.00;;;;;;5108517;28;8860;-60
2022/04/21 11:36:09;;;;;;;;;37.00;32.33;16.80;43.80;;;;;;5121089;28;8751;-61
2022/04/21 11:38:39;;;;;;;;;35.67;31.67;17.40;40.60;;;;;;5121013;28;8771;-60
2022/04/21 11:41:07;;;;;;;;;35.00;33.33;17.10;43.00;;;;;;5118662;28;8755;-61
2022/04/21 11:43:35;;;;;;;;;37.33;33.00;16.90;42.70;;;;;;5118003;28;9468;-61
2022/04/21 11:46:05;;;;;;;;;43.00;35.33;17.20;42.50;;;;;;5117600;28;8767;-64
2022/04/21 11:48:34;;;;;;;;;45.75;35.50;17.60;42.90;;;;;;5113766;28;8805;-62
2022/04/21 11:51:01;;;;;;;;;32.33;30.00;17.50;42.80;;;;;;5107042;28;8780;-61
2022/04/21 11:53:43;;;;;;;;;38.00;34.00;17.50;43.80;;;;;;5099242;28;8812;-60
2022/04/21 11:56:10;;;;;;;;;35.33;33.67;18.30;41.20;;;;;;5106381;28;9469;-61
2022/04/21 11:58:38;;;;;;;;;33.67;32.33;18.10;41.80;;;;;;5097281;28;9456;-60
2022/04/21 12:06:51;;;;;;;;;33.33;29.67;19.20;39.40;;;;;;5110880;28;9412;-60
2022/04/21 12:09:20;;;;;;;;;30.33;27.00;18.90;39.40;;;;;;5117478;28;8766;-57
2022/04/21 12:11:54;;;;;;;;;23.00;22.00;18.50;40.70;;;;;;5130263;27;8779;-60
2022/04/21 12:14:21;;;;;;;;;30.67;26.33;18.40;40.20;;;;;;5137537;27;8806;-67
2022/04/21 12:16:53;;;;;;;;;49.33;41.00;18.60;39.70;;;;;;5116143;27;8777;-62
2022/04/21 12:19:55;;;;;;;;;37.00;33.67;18.70;39.90;;;;;;5134701;27;8768;-60
2022/04/21 12:22:32;;;;;;;;;32.00;31.33;18.80;39.80;;;;;;5073991;28;8886;-60
2022/04/21 12:24:57;;;;;;;;;40.00;33.67;19.40;38.00;;;;;;5067434;28;8925;-60
2022/04/21 12:27:30;;;;;;;;;31.00;29.33;19.70;38.80;;;;;;5052147;28;9640;-59
2022/04/21 12:30:11;;;;;;;;;28.00;25.67;20.60;39.00;;;;;;5053899;28;8805;-61
2022/04/21 12:32:46;;;;;;;;;25.67;25.67;20.70;37.10;;;;;;5054015;28;8788;-60
2022/04/21 12:35:13;;;;;;;;;72.00;55.75;20.40;36.90;;;;;;5063095;28;9439;-60
2022/04/21 12:37:44;;;;;;;;;72.75;62.00;19.70;35.80;;;;;;5053321;28;8796;-60
2022/04/21 12:40:14;;;;;;;;;53.50;44.75;19.10;37.00;;;;;;5070244;28;8797;-63
2022/04/21 12:42:40;;;;;;;;;50.75;43.50;19.40;36.80;;;;;;5073302;28;9435;-67
2022/04/21 12:45:07;;;;;;;;;44.00;37.67;19.00;35.70;;;;;;5054194;28;8774;-61
2022/04/21 12:47:43;;;;;;;;;32.67;29.00;19.10;36.10;;;;;;5058395;28;8817;-62
2022/04/21 12:50:12;;;;;;;;;23.33;23.33;19.60;36.40;;;;;;5064074;28;8799;-62
2022/04/21 12:52:44;;;;;;;;;19.67;19.00;19.70;34.00;;;;;;5051895;28;8901;-62
2022/04/21 12:55:13;;;;;;;;;24.67;24.67;19.70;34.20;;;;;;5055106;28;8831;-61
2022/04/21 12:57:40;;;;;;;;;20.00;20.00;19.10;33.80;;;;;;5116548;28;9411;-61
2022/04/21 13:00:10;;;;;;;;;32.67;29.67;19.20;34.10;;;;;;5116498;28;9403;-62
2022/04/21 13:02:37;;;;;;;;;28.33;26.00;19.70;33.50;;;;;;5116233;28;8757;-61
2022/04/21 13:05:03;;;;;;;;;24.33;22.67;19.40;33.90;;;;;;5116428;28;9435;-61
2022/04/21 13:07:29;;;;;;;;;24.33;23.33;18.40;34.80;;;;;;5115851;28;8819;-61
2022/04/21 13:09:55;;;;;;;;;58.50;43.75;18.00;36.70;;;;;;5115682;28;8801;-61
2022/04/21 13:12:21;;;;;;;;;63.75;49.25;17.90;36.30;;;;;;5115891;28;8774;-61
2022/04/21 13:14:47;;;;;;;;;62.00;49.75;18.20;35.50;;;;;;5116093;28;8785;-61
2022/04/21 13:17:13;;;;;;;;;68.00;53.50;18.10;36.80;;;;;;5116087;28;8754;-61
2022/04/21 13:19:38;;;;;;;;;64.75;52.50;18.30;36.20;;;;;;5115611;28;8785;-61
2022/04/21 13:22:04;;;;;;;;;52.50;43.25;18.60;35.50;;;;;;5115534;28;8821;-61
2022/04/21 13:24:31;;;;;;;;;50.75;42.00;19.30;35.10;;;;;;5116107;28;8813;-61
2022/04/21 13:26:59;;;;;;;;;56.50;46.00;19.20;35.90;;;;;;5116004;28;8793;-61
2022/04/21 13:29:29;;;;;;;;;60.50;48.50;19.30;34.30;;;;;;5115381;28;8800;-61
2022/04/21 13:34:39;;;;;;;;;30.00;29.67;18.90;36.20;;;;;;5115688;28;8856;-64
2022/04/21 13:37:05;;;;;;;;;32.33;30.33;18.80;35.00;;;;;;5115488;28;8788;-58